createdAt,value
2023-01-08T00:01:41.825Z,10.70
2023-01-08T00:04:10.320Z,10.70
2023-01-08T00:06:41.483Z,10.70
2023-01-08T00:09:10.764Z,10.70
2023-01-08T00:11:39.755Z,10.80
2023-01-08T00:14:08.366Z,10.90
2023-01-08T00:16:36.911Z,10.90
2023-01-08T00:19:06.541Z,10.90
2023-01-08T00:21:35.359Z,10.90
2023-01-08T00:24:06.071Z,10.90
2023-01-08T00:26:34.551Z,10.90
2023-01-08T00:29:03.166Z,10.90
2023-01-08T00:31:31.848Z,10.90
2023-01-08T00:34:00.650Z,10.90
2023-01-08T00:36:29.066Z,10.90
2023-01-08T00:38:57.484Z,10.90
2023-01-08T00:41:27.524Z,10.90
2023-01-08T00:43:56.267Z,10.90
2023-01-08T00:46:24.962Z,10.90
2023-01-08T00:48:53.487Z,10.90
2023-01-08T00:51:22.112Z,10.90
2023-01-08T00:53:50.487Z,10.80
2023-01-08T00:56:18.983Z,10.80
2023-01-08T00:58:49.009Z,10.80
2023-01-08T01:01:17.697Z,10.80
2023-01-08T01:03:46.593Z,10.80
2023-01-08T01:06:16.279Z,10.80
2023-01-08T01:08:45.298Z,10.80
2023-01-08T01:11:20.423Z,10.80
2023-01-08T01:13:50.912Z,10.80
2023-01-08T01:16:20.008Z,10.80
2023-01-08T01:18:48.969Z,10.80
2023-01-08T01:21:23.271Z,10.80
2023-01-08T01:23:52.106Z,10.80
2023-01-08T01:26:22.595Z,10.80
2023-01-08T01:28:54.742Z,10.80
2023-01-08T01:31:24.006Z,10.80
2023-01-08T01:33:53.170Z,10.70
2023-01-08T01:36:24.013Z,10.80
2023-01-08T01:38:54.317Z,10.80
2023-01-08T01:41:28.088Z,10.80
2023-01-08T01:43:59.231Z,10.80
2023-01-08T01:46:38.135Z,10.80
2023-01-08T01:49:11.382Z,10.80
2023-01-08T01:51:43.408Z,10.80
2023-01-08T01:54:14.443Z,10.80
2023-01-08T01:56:43.722Z,10.70
2023-01-08T01:59:14.636Z,10.70
2023-01-08T02:01:44.016Z,10.70
2023-01-08T02:04:14.111Z,10.50
2023-01-08T02:06:48.533Z,10.50
2023-01-08T02:09:25.031Z,10.40
2023-01-08T02:12:18.245Z,10.50
2023-01-08T02:15:04.953Z,10.50
2023-01-08T02:17:38.715Z,10.60
2023-01-08T02:20:13.166Z,10.60
2023-01-08T02:23:04.152Z,10.60
2023-01-08T02:25:46.368Z,10.60
2023-01-08T02:28:17.722Z,10.60
2023-01-08T02:30:48.167Z,10.60
2023-01-08T02:33:16.785Z,10.50
2023-01-08T02:35:50.056Z,10.50
2023-01-08T02:38:20.054Z,10.40
2023-01-08T02:40:55.734Z,10.40
2023-01-08T02:43:33.615Z,10.40
2023-01-08T02:46:03.336Z,10.40
2023-01-08T02:48:37.739Z,10.40
2023-01-08T02:51:10.554Z,10.50
2023-01-08T02:53:42.379Z,10.50
2023-01-08T02:56:15.051Z,10.60
2023-01-08T02:58:48.566Z,10.50
2023-01-08T03:01:19.536Z,10.60
2023-01-08T03:03:52.669Z,10.60
2023-01-08T03:06:22.861Z,10.60
2023-01-08T03:08:54.757Z,10.60
2023-01-08T03:11:26.090Z,10.60
2023-01-08T03:14:01.736Z,10.60
2023-01-08T03:16:42.162Z,10.60
2023-01-08T03:19:15.897Z,10.60
2023-01-08T03:21:47.395Z,10.60
2023-01-08T03:24:22.121Z,10.60
2023-01-08T03:26:53.761Z,10.60
2023-01-08T03:29:25.837Z,10.60
2023-01-08T03:31:59.445Z,10.70
2023-01-08T03:34:29.869Z,10.70
2023-01-08T03:37:01.623Z,10.70
2023-01-08T03:39:34.328Z,10.70
2023-01-08T03:42:07.607Z,10.80
2023-01-08T03:44:38.063Z,10.80
2023-01-08T03:47:08.564Z,10.70
2023-01-08T03:49:37.772Z,10.80
2023-01-08T03:52:06.551Z,10.80
2023-01-08T03:54:37.639Z,10.70
2023-01-08T03:57:06.428Z,10.70
2023-01-08T03:59:36.696Z,10.70
2023-01-08T04:02:05.568Z,10.60
2023-01-08T04:04:34.440Z,10.60
2023-01-08T04:07:03.232Z,10.60
2023-01-08T04:09:31.744Z,10.60
2023-01-08T04:12:00.252Z,10.70
2023-01-08T04:14:29.498Z,10.60
2023-01-08T04:17:00.650Z,10.60
2023-01-08T04:19:29.601Z,10.60
2023-01-08T04:21:59.955Z,10.60
2023-01-08T04:24:29.591Z,10.60
2023-01-08T04:26:58.187Z,10.60
2023-01-08T04:29:26.906Z,10.50
2023-01-08T04:31:55.299Z,10.40
2023-01-08T04:34:25.230Z,10.40
2023-01-08T04:36:54.021Z,10.30
2023-01-08T04:39:22.482Z,10.30
2023-01-08T04:41:51.072Z,10.30
2023-01-08T04:44:19.538Z,10.20
2023-01-08T04:46:48.080Z,10.20
2023-01-08T04:49:16.428Z,10.20
2023-01-08T04:51:46.319Z,10.20
2023-01-08T04:54:14.887Z,10.20
2023-01-08T04:56:43.451Z,10.20
2023-01-08T04:59:12.003Z,10.20
2023-01-08T05:01:40.683Z,10.30
2023-01-08T05:04:09.255Z,10.30
2023-01-08T05:06:37.697Z,10.30
2023-01-08T05:09:07.687Z,10.30
2023-01-08T05:11:37.535Z,10.40
2023-01-08T05:14:06.426Z,10.30
2023-01-08T05:16:34.918Z,10.40
2023-01-08T05:19:04.432Z,10.40
2023-01-08T05:21:33.052Z,10.40
2023-01-08T05:24:01.719Z,10.40
2023-01-08T05:26:31.791Z,10.40
2023-01-08T05:29:00.437Z,10.40
2023-01-08T05:31:29.140Z,10.40
2023-01-08T05:33:59.634Z,10.40
2023-01-08T05:36:28.424Z,10.40
2023-01-08T05:38:57.139Z,10.30
2023-01-08T05:41:25.706Z,10.30
2023-01-08T05:43:55.541Z,10.20
2023-01-08T05:46:23.934Z,10.20
2023-01-08T05:48:52.338Z,10.10
2023-01-08T05:51:20.753Z,10.10
2023-01-08T05:53:49.201Z,10.20
2023-01-08T05:56:17.777Z,10.20
2023-01-08T05:58:46.313Z,10.30
2023-01-08T06:01:20.214Z,10.40
2023-01-08T06:03:48.616Z,10.40
2023-01-08T06:06:17.279Z,10.40
2023-01-08T06:08:45.765Z,10.40
2023-01-08T06:11:15.165Z,10.40
2023-01-08T06:13:45.176Z,10.50
2023-01-08T06:16:15.298Z,10.50
2023-01-08T06:18:51.229Z,10.50
2023-01-08T06:21:19.848Z,10.50
2023-01-08T06:23:48.293Z,10.50
2023-01-08T06:26:16.795Z,10.60
2023-01-08T06:28:45.284Z,10.60
2023-01-08T06:31:13.745Z,10.60
2023-01-08T06:33:43.877Z,10.60
2023-01-08T06:36:12.299Z,10.40
2023-01-08T06:38:40.845Z,10.30
2023-01-08T06:41:11.718Z,10.00
2023-01-08T06:43:40.554Z,9.50
2023-01-08T06:46:10.738Z,9.10
2023-01-08T06:48:39.406Z,8.90
2023-01-08T06:51:09.777Z,8.80
2023-01-08T06:53:38.372Z,8.70
2023-01-08T06:56:09.512Z,8.60
2023-01-08T06:58:39.486Z,8.50
2023-01-08T07:01:08.152Z,8.50
2023-01-08T07:03:37.028Z,8.60
2023-01-08T07:06:06.016Z,8.50
2023-01-08T07:08:36.176Z,8.50
2023-01-08T07:11:04.988Z,8.50
2023-01-08T07:13:33.729Z,8.40
2023-01-08T07:16:07.450Z,8.40
2023-01-08T07:18:36.315Z,8.40
2023-01-08T07:21:05.305Z,8.40
2023-01-08T07:23:36.025Z,8.30
2023-01-08T07:26:06.050Z,8.30
2023-01-08T07:28:34.856Z,8.30
2023-01-08T07:31:07.073Z,8.30
2023-01-08T07:33:36.026Z,8.30
2023-01-08T07:36:04.754Z,8.20
2023-01-08T07:38:33.378Z,8.20
2023-01-08T07:41:03.982Z,8.20
2023-01-08T07:43:32.554Z,8.20
2023-01-08T07:46:04.383Z,8.10
2023-01-08T07:48:33.307Z,8.10
2023-01-08T07:51:09.278Z,8.10
2023-01-08T07:53:38.516Z,8.00
2023-01-08T07:56:10.827Z,8.00
2023-01-08T07:58:39.656Z,8.00
2023-01-08T08:01:12.328Z,8.00
2023-01-08T08:03:41.358Z,8.00
2023-01-08T08:06:10.482Z,8.00
2023-01-08T08:08:40.692Z,8.00
2023-01-08T08:11:12.102Z,7.90
2023-01-08T08:13:44.979Z,7.90
2023-01-08T08:16:13.960Z,7.80
2023-01-08T08:18:44.438Z,7.70
2023-01-08T08:21:13.107Z,7.70
2023-01-08T08:23:41.688Z,7.60
2023-01-08T08:26:11.611Z,7.60
2023-01-08T08:28:40.120Z,7.60
2023-01-08T08:31:08.846Z,7.50
2023-01-08T08:33:37.274Z,7.50
2023-01-08T08:36:06.256Z,7.50
2023-01-08T08:38:34.809Z,7.50
2023-01-08T08:41:06.727Z,7.50
2023-01-08T08:43:39.863Z,7.40
2023-01-08T08:46:08.435Z,7.40
2023-01-08T08:48:37.124Z,7.40
2023-01-08T08:51:06.022Z,7.40
2023-01-08T08:53:38.495Z,7.50
2023-01-08T08:56:07.492Z,7.50
2023-01-08T08:58:42.022Z,7.50
2023-01-08T09:01:10.681Z,7.50
2023-01-08T09:03:39.699Z,7.50
2023-01-08T09:06:13.515Z,7.60
2023-01-08T09:08:42.140Z,7.60
2023-01-08T09:11:12.556Z,7.60
2023-01-08T09:13:43.640Z,7.70
2023-01-08T09:16:12.250Z,7.80
2023-01-08T09:18:40.827Z,7.90
2023-01-08T09:21:09.772Z,7.90
2023-01-08T09:23:39.753Z,8.00
2023-01-08T09:26:08.596Z,8.10
2023-01-08T09:28:38.344Z,8.10
2023-01-08T09:31:08.658Z,8.20
2023-01-08T09:33:37.147Z,8.30
2023-01-08T09:36:06.131Z,8.50
2023-01-08T09:38:34.642Z,8.60
2023-01-08T09:41:05.617Z,8.70
2023-01-08T09:43:41.732Z,8.90
2023-01-08T09:46:14.065Z,9.10
2023-01-08T09:48:43.396Z,9.20
2023-01-08T09:51:14.508Z,9.30
2023-01-08T09:53:44.193Z,9.40
2023-01-08T09:56:15.431Z,9.40
2023-01-08T09:58:47.084Z,9.50
2023-01-08T10:01:20.208Z,9.70
2023-01-08T10:03:52.312Z,9.90
2023-01-08T10:06:20.948Z,10.00
2023-01-08T10:08:51.442Z,10.10
2023-01-08T10:11:21.482Z,10.20
2023-01-08T10:13:53.595Z,10.40
2023-01-08T10:16:30.588Z,10.60
2023-01-08T10:19:00.058Z,10.70
2023-01-08T10:21:34.136Z,10.70
2023-01-08T10:24:02.827Z,10.80
2023-01-08T10:26:33.035Z,10.90
2023-01-08T10:29:10.419Z,11.00
2023-01-08T10:31:48.711Z,11.00
2023-01-08T10:34:30.881Z,10.90
2023-01-08T10:36:59.523Z,10.90
2023-01-08T10:39:29.814Z,11.00
2023-01-08T10:42:05.178Z,11.20
2023-01-08T10:44:36.014Z,11.30
2023-01-08T10:47:07.247Z,11.40
2023-01-08T10:49:42.079Z,11.50
2023-01-08T10:52:27.916Z,11.70
2023-01-08T10:54:56.806Z,11.80
2023-01-08T10:57:28.308Z,12.00
2023-01-08T10:59:58.078Z,12.10
2023-01-08T11:02:37.314Z,11.90
2023-01-08T11:05:11.031Z,12.00
2023-01-08T11:07:42.286Z,12.10
2023-01-08T11:10:25.073Z,12.10
2023-01-08T11:12:58.948Z,12.20
2023-01-08T11:15:35.563Z,12.20
2023-01-08T11:18:22.596Z,12.00
2023-01-08T11:20:52.349Z,11.90
2023-01-08T11:23:23.493Z,11.80
2023-01-08T11:26:03.299Z,11.60
2023-01-08T11:28:43.724Z,11.50
2023-01-08T11:31:19.404Z,11.60
2023-01-08T11:33:54.954Z,11.70
2023-01-08T11:36:27.993Z,11.70
2023-01-08T11:38:56.775Z,11.70
2023-01-08T11:41:39.699Z,11.70
2023-01-08T11:44:21.543Z,11.70
2023-01-08T11:46:59.102Z,11.70
2023-01-08T11:49:46.053Z,11.40
2023-01-08T11:52:34.612Z,11.20
2023-01-08T11:55:17.319Z,11.10
2023-01-08T11:58:01.180Z,11.20
2023-01-08T12:00:44.965Z,11.20
2023-01-08T12:03:24.088Z,11.30
2023-01-08T12:06:02.546Z,11.10
2023-01-08T12:08:42.160Z,10.70
2023-01-08T12:11:23.115Z,8.70
2023-01-08T12:14:08.899Z,7.90
2023-01-08T12:16:59.049Z,7.90
2023-01-08T12:19:38.848Z,7.90
2023-01-08T12:22:28.397Z,7.90
2023-01-08T12:25:17.815Z,8.10
2023-01-08T12:27:57.406Z,8.10
2023-01-08T12:30:38.542Z,8.20
2023-01-08T12:33:13.301Z,8.30
2023-01-08T12:35:47.834Z,8.60
2023-01-08T12:38:22.629Z,9.50
2023-01-08T12:40:55.175Z,10.70
2023-01-08T12:43:29.710Z,11.30
2023-01-08T12:46:02.135Z,11.70
2023-01-08T12:48:33.783Z,12.10
2023-01-08T12:51:07.136Z,12.20
2023-01-08T12:53:51.777Z,12.80
2023-01-08T12:56:32.259Z,13.10
2023-01-08T12:59:14.979Z,13.50
2023-01-08T13:01:50.785Z,13.50
2023-01-08T13:04:20.221Z,13.70
2023-01-08T13:07:02.591Z,13.80
2023-01-08T13:09:34.521Z,14.00
2023-01-08T13:12:06.277Z,13.80
2023-01-08T13:14:43.726Z,14.20
2023-01-08T13:17:20.613Z,14.20
2023-01-08T13:19:56.153Z,14.30
2023-01-08T13:22:30.387Z,14.50
2023-01-08T13:25:32.931Z,14.80
2023-01-08T13:28:07.508Z,15.50
2023-01-08T13:30:43.144Z,15.80
2023-01-08T13:33:29.690Z,16.20
2023-01-08T13:36:23.055Z,16.40
2023-01-08T13:42:30.325Z,15.90
2023-01-08T13:45:17.143Z,16.30
2023-01-08T13:47:47.039Z,16.50
2023-01-08T13:50:24.239Z,15.70
2023-01-08T13:52:59.415Z,14.30
2023-01-08T13:55:33.415Z,13.20
2023-01-08T13:58:06.684Z,12.60
2023-01-08T14:00:48.517Z,12.30
2023-01-08T14:03:28.080Z,13.00
2023-01-08T14:06:08.680Z,14.20
2023-01-08T14:08:37.842Z,14.30
2023-01-08T14:11:07.050Z,13.60
2023-01-08T14:13:38.265Z,13.40
2023-01-08T14:16:08.529Z,14.10
2023-01-08T14:18:37.211Z,14.20
2023-01-08T14:21:05.957Z,13.90
2023-01-08T14:23:39.586Z,13.40
2023-01-08T14:26:10.624Z,13.70
2023-01-08T14:28:41.111Z,13.30
2023-01-08T14:31:22.060Z,12.60
2023-01-08T14:33:53.127Z,12.10
2023-01-08T14:36:22.340Z,11.70
2023-01-08T14:38:52.488Z,11.70
2023-01-08T14:41:48.689Z,11.70
2023-01-08T14:44:25.967Z,11.50
2023-01-08T14:46:57.918Z,11.30
2023-01-08T14:49:29.825Z,11.10
2023-01-08T14:52:00.521Z,11.00
2023-01-08T14:54:32.764Z,10.90
2023-01-08T14:57:02.641Z,10.70
2023-01-08T14:59:35.332Z,10.60
2023-01-08T15:02:05.713Z,10.60
2023-01-08T15:04:34.416Z,10.40
2023-01-08T15:07:18.015Z,10.40
2023-01-08T15:09:57.743Z,10.30
2023-01-08T15:12:28.274Z,10.30
2023-01-08T15:14:58.466Z,10.40
2023-01-08T15:17:30.292Z,10.30
2023-01-08T15:20:00.822Z,10.30
2023-01-08T15:22:33.118Z,10.30
2023-01-08T15:25:03.880Z,10.20
2023-01-08T15:27:34.833Z,10.10
2023-01-08T15:30:07.365Z,10.10
2023-01-08T15:32:37.582Z,10.00
2023-01-08T15:35:15.576Z,10.00
2023-01-08T15:37:44.462Z,10.00
2023-01-08T15:40:14.496Z,9.90
2023-01-08T15:43:00.374Z,9.90
2023-01-08T15:45:32.952Z,9.90
2023-01-08T15:48:01.574Z,9.80
2023-01-08T15:50:32.565Z,9.70
2023-01-08T15:53:01.418Z,9.70
2023-01-08T15:55:32.502Z,9.80
2023-01-08T15:58:01.460Z,9.80
2023-01-08T16:00:31.842Z,9.90
2023-01-08T16:03:01.353Z,9.90
2023-01-08T16:05:33.100Z,9.90
2023-01-08T16:08:01.927Z,9.90
2023-01-08T16:10:30.412Z,9.90
2023-01-08T16:12:59.180Z,9.90
2023-01-08T16:15:28.865Z,9.90
2023-01-08T16:17:59.562Z,9.90
2023-01-08T16:20:28.542Z,9.90
2023-01-08T16:22:58.106Z,10.00
2023-01-08T16:25:26.777Z,10.00
2023-01-08T16:27:55.382Z,10.00
2023-01-08T16:30:24.089Z,9.90
2023-01-08T16:32:53.392Z,9.90
2023-01-08T16:35:23.607Z,9.90
2023-01-08T16:37:52.310Z,9.90
2023-01-08T16:40:21.302Z,9.90
2023-01-08T16:42:50.196Z,9.80
2023-01-08T16:45:18.981Z,9.80
2023-01-08T16:47:47.532Z,9.70
2023-01-08T16:50:16.237Z,9.60
2023-01-08T16:52:46.668Z,9.60
2023-01-08T16:55:15.271Z,9.60
2023-01-08T16:57:43.939Z,9.60
2023-01-08T17:00:13.806Z,9.60
2023-01-08T17:02:42.539Z,9.60
2023-01-08T17:05:11.335Z,9.50
2023-01-08T17:07:40.001Z,9.40
2023-01-08T17:10:11.396Z,9.20
2023-01-08T17:12:39.963Z,9.00
2023-01-08T17:15:09.531Z,8.90
2023-01-08T17:17:38.235Z,8.90
2023-01-08T17:20:09.541Z,8.80
2023-01-08T17:22:38.207Z,8.70
2023-01-08T17:25:07.666Z,8.70
2023-01-08T17:27:38.276Z,8.70
2023-01-08T17:30:08.221Z,8.70
2023-01-08T17:32:36.918Z,8.60
2023-01-08T17:35:06.221Z,8.70
2023-01-08T17:37:37.356Z,8.60
2023-01-08T17:40:07.223Z,8.60
2023-01-08T17:42:35.800Z,8.50
2023-01-08T17:45:06.997Z,8.50
2023-01-08T17:47:37.413Z,8.50
2023-01-08T17:50:07.033Z,8.50
2023-01-08T17:52:35.955Z,8.60
2023-01-08T17:55:05.002Z,8.50
2023-01-08T17:57:33.818Z,8.40
2023-01-08T18:00:02.641Z,8.30
2023-01-08T18:02:34.969Z,8.30
2023-01-08T18:05:03.539Z,8.30
2023-01-08T18:07:35.221Z,8.30
2023-01-08T18:10:05.761Z,8.30
2023-01-08T18:12:34.386Z,8.30
2023-01-08T18:15:05.444Z,8.30
2023-01-08T18:17:35.675Z,8.30
2023-01-08T18:20:04.414Z,8.30
2023-01-08T18:22:33.206Z,8.30
2023-01-08T18:25:01.918Z,8.20
2023-01-08T18:27:30.671Z,8.20
2023-01-08T18:29:59.427Z,8.30
2023-01-08T18:32:28.221Z,8.30
2023-01-08T18:34:58.999Z,8.20
2023-01-08T18:37:29.599Z,8.20
2023-01-08T18:39:58.343Z,8.20
2023-01-08T18:42:26.938Z,8.20
2023-01-08T18:44:56.197Z,8.20
2023-01-08T18:47:25.960Z,8.20
2023-01-08T18:49:55.163Z,8.20
2023-01-08T18:52:25.388Z,8.20
2023-01-08T18:55:03.503Z,8.20
2023-01-08T18:57:33.651Z,8.20
2023-01-08T19:00:05.575Z,8.10
2023-01-08T19:02:34.920Z,8.10
2023-01-08T19:05:04.251Z,8.20
2023-01-08T19:07:34.728Z,8.30
2023-01-08T19:10:03.613Z,8.50
2023-01-08T19:12:32.497Z,8.50
2023-01-08T19:15:01.311Z,8.60
2023-01-08T19:17:31.865Z,8.60
2023-01-08T19:20:00.684Z,8.70
2023-01-08T19:22:32.408Z,8.80
2023-01-08T19:25:03.120Z,8.90
2023-01-08T19:27:38.274Z,8.90
2023-01-08T19:30:08.269Z,8.80
2023-01-08T19:32:38.581Z,8.90
2023-01-08T19:35:08.013Z,8.80
2023-01-08T19:37:38.726Z,8.80
2023-01-08T19:40:10.930Z,8.70
2023-01-08T19:42:56.911Z,8.60
2023-01-08T19:45:25.618Z,8.50
2023-01-08T19:47:56.383Z,8.50
2023-01-08T19:50:25.251Z,8.50
2023-01-08T19:52:59.198Z,8.40
2023-01-08T19:55:30.120Z,8.40
2023-01-08T19:57:59.863Z,8.40
2023-01-08T20:00:29.454Z,8.40
2023-01-08T20:02:58.158Z,8.40
2023-01-08T20:05:26.662Z,8.40
2023-01-08T20:07:58.459Z,8.50
2023-01-08T20:10:29.915Z,8.50
2023-01-08T20:12:58.599Z,8.50
2023-01-08T20:15:29.301Z,8.60
2023-01-08T20:17:57.951Z,8.80
2023-01-08T20:20:28.606Z,8.90
2023-01-08T20:22:57.344Z,9.00
2023-01-08T20:25:26.545Z,9.10
2023-01-08T20:27:56.829Z,9.10
2023-01-08T20:30:25.401Z,9.10
2023-01-08T20:32:55.166Z,9.20
2023-01-08T20:35:23.828Z,9.40
2023-01-08T20:37:52.460Z,9.60
2023-01-08T20:40:21.179Z,9.80
2023-01-08T20:42:49.736Z,9.80
2023-01-08T20:45:19.822Z,9.80
2023-01-08T20:47:48.360Z,9.80
2023-01-08T20:50:20.299Z,9.70
2023-01-08T20:52:49.160Z,9.70
2023-01-08T20:55:18.755Z,9.70
2023-01-08T20:57:48.778Z,9.70
2023-01-08T21:00:18.673Z,9.80
2023-01-08T21:02:48.808Z,9.80
2023-01-08T21:05:17.575Z,9.80
2023-01-08T21:07:46.236Z,9.80
2023-01-08T21:10:14.809Z,9.80
2023-01-08T21:12:43.643Z,9.80
2023-01-08T21:15:13.418Z,9.80
2023-01-08T21:17:42.004Z,9.90
2023-01-08T21:20:17.123Z,9.90
2023-01-08T21:22:45.578Z,9.80
2023-01-08T21:25:14.410Z,9.70
2023-01-08T21:27:43.044Z,9.70
2023-01-08T21:30:13.117Z,9.80
2023-01-08T21:32:42.784Z,9.80
2023-01-08T21:35:12.955Z,9.70
2023-01-08T21:37:42.043Z,9.70
2023-01-08T21:40:12.105Z,9.60
2023-01-08T21:42:58.365Z,9.50
2023-01-08T21:45:28.040Z,9.50
2023-01-08T21:47:58.637Z,9.40
2023-01-08T21:50:29.272Z,9.40
2023-01-08T21:53:15.273Z,9.50
2023-01-08T21:55:44.163Z,9.50
2023-01-08T21:58:12.782Z,9.60
2023-01-08T22:00:41.493Z,9.60
2023-01-08T22:03:10.379Z,9.70
2023-01-08T22:05:40.633Z,9.70
2023-01-08T22:08:14.058Z,9.70
2023-01-08T22:10:42.515Z,9.60
2023-01-08T22:13:11.715Z,9.60
2023-01-08T22:15:40.605Z,9.50
2023-01-08T22:18:10.880Z,9.50
2023-01-08T22:20:44.209Z,9.60
2023-01-08T22:23:14.589Z,9.60
2023-01-08T22:25:43.288Z,9.50
2023-01-08T22:28:14.967Z,9.40
2023-01-08T22:30:43.606Z,9.30
2023-01-08T22:33:12.257Z,9.20
2023-01-08T22:35:42.934Z,9.10
2023-01-08T22:38:11.674Z,9.10
2023-01-08T22:40:40.753Z,9.00
2023-01-08T22:43:09.502Z,9.00
2023-01-08T22:45:38.116Z,8.90
2023-01-08T22:48:08.150Z,8.90
2023-01-08T22:50:36.817Z,8.90
2023-01-08T22:53:09.246Z,8.90
2023-01-08T22:55:41.441Z,8.80
2023-01-08T22:58:10.539Z,8.80
2023-01-08T23:00:39.349Z,8.80
2023-01-08T23:03:08.096Z,8.80
2023-01-08T23:05:37.092Z,8.80
2023-01-08T23:08:07.839Z,8.70
2023-01-08T23:10:36.621Z,8.70
2023-01-08T23:13:05.344Z,8.70
2023-01-08T23:15:33.915Z,8.70
2023-01-08T23:18:02.683Z,8.60
2023-01-08T23:20:31.235Z,8.70
2023-01-08T23:22:59.894Z,8.60
2023-01-08T23:25:32.068Z,8.60
2023-01-08T23:28:00.472Z,8.60
2023-01-08T23:30:31.690Z,8.60
2023-01-08T23:33:01.240Z,8.50
2023-01-08T23:35:29.690Z,8.50
2023-01-08T23:37:58.126Z,8.50
2023-01-08T23:40:26.685Z,8.50
2023-01-08T23:42:56.656Z,8.50
2023-01-08T23:45:26.423Z,8.50
2023-01-08T23:47:54.934Z,8.50
2023-01-08T23:50:23.346Z,8.50
2023-01-08T23:52:51.795Z,8.50
2023-01-08T23:55:20.503Z,8.50
2023-01-08T23:57:49.287Z,8.50
